Tiempo atmosférico en la estación meteorológica de Murcia, Murcia (61 m.)



Fecha
DESCASC
Temp. máxima en grados centígrados (hora)
DESCASC
Temp. mínima en grados centígrados (hora)
DESCASC
Temp. media en grados centígrados
DESCASC
Racha de viento máxima en m/sg (hora)
DESCASC
Velocidad máxima media en intervalos de 10 minutos(hora)
DESCASC
Precipitaciones diarias en mm
DESCASC
Precipitaciones de 00:00 a 06:00 en mm
DESCASC
Precipitaciones de 06:00 a 12:00 en mm
DESCASC
Precipitaciones de 12:00 a 18:00 en mm
DESCASC
Precipitaciones de 18:00 a 24:00 en mm
DESCASC
05-01-2021 -- (--) -- (--) -- -- (--) -- (--) -- -- -- 0 0
24-12-2020 20.1 (15:40) 9.1 (00:00) 14.6 7.22 (14:20) 4.44 (14:10) 0 0 0 0 0
21-01-2021 20.8 (15:20) 4 (00:00) 12.4 11.94 (15:30) 7.22 (15:40) 0 0 0 0 0
20-01-2021 10.2 (17:50) 5.9 (00:00) 8 5.83 (11:10) 3.89 (11:00) 0.4 0 0 0.4 0
19-01-2021 16.4 (15:30) 4.5 (00:00) 10.4 5.83 (18:00) 2.78 (06:00) 0 0 0 0 0
18-01-2021 18.4 (14:50) 4.6 (00:00) 11.5 5.83 (00:10) 4.17 (00:10) 0 0 0 0 0
17-01-2021 21 (16:00) 1.7 (00:00) 11.4 9.72 (14:50) 6.11 (14:50) 0 0 0 0 0
16-01-2021 16.8 (16:40) 5.2 (00:00) 11 11.39 (06:20) 7.22 (06:20) 0 0 0 0 0
15-01-2021 17.8 (15:50) 8 (00:00) 12.9 11.39 (11:20) 6.94 (14:00) 0 0 0 0 0
14-01-2021 19.4 (16:20) 0.6 (06:40) 10 8.61 (23:59) 5.28 (23:59) 0 0 0 0 0
13-01-2021 17.7 (16:50) 0.4 (00:00) 9.1 5.83 (13:50) 3.61 (14:00) 0 0 0 0 0
12-01-2021 13.7 (16:00) 2.1 (00:00) 7.9 6.11 (16:10) 4.17 (16:10) 0 0 0 0 0
11-01-2021 12.5 (15:20) 4.3 (00:00) 8.4 5.83 (20:40) 3.33 (20:40) 0 0 0 0 0
10-01-2021 8.5 (17:10) 4.6 (01:50) 6.5 3.89 (02:10) 2.22 (00:50) 3.2 2 0 1.2 0
06-01-2021 12.5 (15:20) 2.4 (00:00) 7.5 6.11 (22:40) 3.61 (22:30) 0 0 0 0 0
04-01-2021 -- (--) -- (--) -- -- (--) -- (--) -- 0 0 -- --
03-01-2021 13.5 (14:30) 2.1 (00:00) 7.8 12.78 (10:00) 8.06 (11:30) 0 0 0 0 0
02-01-2021 12.2 (15:30) 0.1 (00:00) 6.1 14.17 (17:20) 7.78 (15:00) 0 0 0 0 0
31-12-2020 16.4 (17:10) 1.5 (00:00) 8.9 6.39 (20:30) 3.89 (20:30) 0 0 0 0 0
30-12-2020 14.4 (15:20) 3.7 (00:00) 9 12.22 (13:30) 7.22 (13:10) 0 0 0 0 0
29-12-2020 15.8 (14:10) 6.8 (00:00) 11.3 10.28 (12:40) 6.39 (12:40) 0 0 0 0 0
28-12-2020 17.6 (15:50) 5.6 (00:00) 11.6 13.61 (05:50) 8.89 (06:00) 0 0 0 0 0
27-12-2020 16.4 (16:20) -0.3 (00:00) 8 5.83 (10:30) 3.61 (10:30) 0 0 0 0 0
26-12-2020 13.3 (15:40) 3.9 (00:00) 8.6 10 (11:50) 6.11 (10:40) 0 0 0 0 0
25-12-2020 16.2 (14:10) 7.7 (00:00) 12 10.56 (14:00) 6.67 (13:40) 0 0 0 0 0
23-12-2020 21.5 (16:30) 5.9 (00:00) 13.7 5.28 (19:10) 3.06 (17:40) 0 0 0 0 0
09-01-2021 11.4 (15:50) 5 (00:00) 8.2 7.22 (03:00) 4.72 (03:00) 3.6 3.4 0.2 0 0
01-01-2021 14.3 (14:50) 2.2 (00:00) 8.3 14.17 (14:00) 8.61 (14:00) 0.2 0 0.2 0 0
07-01-2021 8.4 (00:00) 4.7 (00:00) 6.5 7.5 (03:30) 5 (03:20) 13 4 5.2 3.4 0.4
08-01-2021 7.2 (18:10) 4.2 (00:00) 5.7 6.67 (21:40) 3.89 (20:10) 25.6 7.4 6.4 7.4 4.4

Gráficas

Temp. máximas Temp. mínimas Temp. medias Precipitaciones Rachas de viento máximas Velocidades máximas media en intervalos de 10 minutos

Datos horarios

Fecha y hora oficial Temperatura (ºC) Velocidad del viento (km/h) Dirección del viento Racha (km/h) Dirección de racha Precipitación (mm) Presión (hPa) Tendencia (hPa) Humedad (%)
2021-01-21 23:00:00 15.8 9 Sur 24 Sur 0 1008.4 -- 57
2021-01-21 22:00:00 15.9 9 Sudoeste 19 Oeste 0 1009 -- 55
2021-01-21 21:00:00 16.6 10 Sudoeste 25 Sudoeste 0 1009 -- 51
2021-01-21 20:00:00 14.5 4 Oeste 8 Oeste 0 1009 -- 56
2021-01-21 19:00:00 16.2 4 Oeste 12 Sudoeste 0 1008.9 -- 50
2021-01-21 18:00:00 17.7 6 Sudoeste 18 Oeste 0 1008.4 -- 45
2021-01-21 17:00:00 19.1 12 Oeste 32 Oeste 0 1008.2 -- 39
2021-01-21 16:00:00 20.1 19 Oeste 43 Sudoeste 0 1008.1 -- 36
2021-01-21 15:00:00 20.6 24 Oeste 40 Oeste 0 1008.1 -- 35
2021-01-21 14:00:00 19.8 7 Noroeste 14 Noroeste 0 1008.8 -- 45
2021-01-21 13:00:00 18.6 3 Sur 7 Sudoeste 0 1009.6 -- 50
2021-01-21 12:00:00 15.2 3 Este 10 Sudeste 0 1010.5 -- 61
2021-01-21 11:00:00 12 4 Sudoeste 8 Sur 0 1010.7 -- 73
2021-01-21 10:00:00 9.3 8 Noroeste 13 Noroeste 0 1010.6 -- 82
2021-01-21 09:00:00 6.4 2 Sudoeste 10 Noroeste 0 1010.2 -- 90
2021-01-21 08:00:00 4.4 3 Oeste 6 Este 0 1009.4 -- 96
2021-01-21 07:00:00 4.5 3 Noroeste 12 Noroeste 0 1009.1 -- 92
2021-01-21 06:00:00 5.6 3 Oeste 7 Sur 0 1008.6 -- 95
2021-01-21 05:00:00 5.9 3 Oeste 12 Noroeste 0 1008 -- 92
2021-01-21 04:00:00 6.1 5 Noroeste 11 Sudoeste 0 1007.6 -- 92
2021-01-21 03:00:00 6.9 6 Sudoeste 11 Sur 0 1007.3 -- 91
2021-01-21 02:00:00 7.7 4 Nordeste 12 Noroeste 0 1006.9 -- 90
2021-01-21 01:00:00 7.5 2 Oeste 10 Norte 0 1006.5 -- 93
2021-01-21 00:00:00 7.7 3 Oeste 8 Sudeste 0 1006.5 -- 93
2021-01-20 23:00:00 8 4 Noroeste 10 Noroeste 0 1006.1 -- 92
2021-01-20 22:00:00 8.6 4 Oeste 9 Oeste 0 1006.1 -- 90
2021-01-20 21:00:00 8.8 2 Oeste 6 Oeste 0 1006.2 -- 90
2021-01-20 20:00:00 9 3 Noroeste 8 Noroeste 0 1006.5 -- 89
2021-01-20 19:00:00 9.5 4 Oeste 8 Sur 0 1006.5 -- 88
2021-01-20 18:00:00 10.1 4 Este 10 Nordeste 0 1006.6 -- 85
2021-01-20 17:00:00 9.8 4 Norte 12 Este 0 1005.9 -- 85
2021-01-20 16:00:00 9.7 5 Oeste 14 Norte 0.2 1007.2 -- 84
2021-01-20 15:00:00 9.2 3 Noroeste 11 Sudoeste 0.2 1007.1 -- 84
2021-01-20 14:00:00 9.5 5 Oeste 8 Noroeste 0 1008.3 -- 79
2021-01-20 13:00:00 9.6 5 Norte 14 Noroeste 0 1009.5 -- 78
2021-01-20 12:00:00 9.7 7 Noroeste 21 Noroeste 0 1010.3 -- 80
2021-01-20 11:00:00 9 14 Noroeste 20 Noroeste 0 1010.3 -- 85
2021-01-20 10:00:00 8.1 6 Oeste 10 Oeste 0 1009.9 -- 90
2021-01-20 09:00:00 7.5 4 Sur 12 Noroeste 0 1009.8 -- 92
2021-01-20 08:00:00 7.7 12 Oeste 17 Noroeste 0 1010.3 -- 93
2021-01-20 07:00:00 7.3 5 Oeste 8 Noroeste 0 1010.3 -- 96
2021-01-20 06:00:00 6.2 4 Sur 6 Sur 0 1010.6 -- 95
2021-01-20 05:00:00 6.4 0 Calma 7 Sudeste 0 1011.3 -- 92
2021-01-20 04:00:00 7.4 3 Sudeste 8 Sudoeste 0 1012.2 -- 93
2021-01-20 03:00:00 7.1 2 Sur 5 Sudoeste 0 1012.8 -- 93
2021-01-20 02:00:00 6.8 0 Calma 5 Sur 0 1013 -- 96
2021-01-20 01:00:00 6.4 4 Sur 10 Oeste 0 1013.7 -- 94
2021-01-20 00:00:00 6.4 3 Sudoeste 6 Oeste 0 1014.2 -- 93
2021-01-19 23:00:00 7.5 2 Norte 8 Oeste 0 1014.4 -- 91
2021-01-19 22:00:00 8.4 4 Oeste 9 Norte 0 1015 -- 90
2021-01-19 21:00:00 8.9 6 Norte 8 Norte 0 1015 -- 87
2021-01-19 20:00:00 10.2 4 Nordeste 10 Nordeste 0 1015.3 -- 81
2021-01-19 19:00:00 12.6 4 Sudeste 15 Sudeste 0 1015.2 -- 71
2021-01-19 18:00:00 14.7 8 Sur 21 Sur 0 1015 -- 65
2021-01-19 17:00:00 15.7 9 Nordeste 13 Nordeste 0 1015 -- 58
2021-01-19 16:00:00 16.1 4 Este 10 Este 0 1015.6 -- 55
2021-01-19 15:00:00 15.6 5 Sudeste 9 Sur 0 1016.1 -- 55
2021-01-19 14:00:00 14.5 5 Sudoeste 9 Sudoeste 0 1017.1 -- 55
2021-01-19 13:00:00 11.9 2 Oeste 10 Oeste 0 1018.3 -- 61
2021-01-19 12:00:00 10.2 5 Sudoeste 10 Sur 0 1019.7 -- 70
2021-01-19 11:00:00 7.3 5 Sudoeste 12 Oeste 0 1020.1 -- 88
2021-01-19 10:00:00 5.4 6 Oeste 13 Noroeste 0 1019.9 -- 92
2021-01-19 09:00:00 4.5 7 Noroeste 11 Noroeste 0 1019.9 -- 97
2021-01-19 08:00:00 5.3 7 Noroeste 11 Oeste 0 1019.9 -- 94
2021-01-19 07:00:00 6.5 6 Noroeste 14 Noroeste 0 1019.9 -- 95
2021-01-19 06:00:00 7.1 10 Noroeste 13 Oeste 0 1019.7 -- 92
2021-01-19 05:00:00 7.9 7 Noroeste 11 Noroeste 0 1019.9 -- 89
2021-01-19 04:00:00 8.3 7 Noroeste 11 Noroeste 0 1020.3 -- 90
2021-01-19 03:00:00 7.6 5 Sudoeste 9 Sudoeste 0 1020.5 -- 92
2021-01-19 02:00:00 7.1 4 Sur 11 Oeste 0 1020.6 -- 89
2021-01-19 01:00:00 6.4 4 Oeste 7 Oeste 0 1020.8 -- 93
2021-01-19 00:00:00 6.9 3 Oeste 5 Oeste 0 1021 -- 91
2021-01-18 23:00:00 7.3 2 Oeste 5 Oeste 0 1020.8 -- 88
2021-01-18 22:00:00 8.4 2 Oeste 4 Nordeste 0 1020.6 -- 82
2021-01-18 21:00:00 9.6 5 Nordeste 9 Nordeste 0 1020.5 -- 77
2021-01-18 20:00:00 10.7 6 Norte 9 Norte 0 1020 -- 70
2021-01-18 19:00:00 12.5 6 Nordeste 10 Este 0 1019.4 -- 60
2021-01-18 18:00:00 15.5 6 Este 17 Nordeste 0 1019 -- 49
2021-01-18 17:00:00 17.2 10 Este 18 Este 0 1018.4 -- 45
2021-01-18 16:00:00 17.7 6 Este 13 Este 0 1018.5 -- 37
2021-01-18 15:00:00 18.1 6 Este 11 Sudeste 0 1018.9 -- 35
2021-01-18 14:00:00 16.9 5 Oeste 10 Noroeste 0 1019.5 -- 35
2021-01-18 13:00:00 15 4 Noroeste 11 Oeste 0 1020.5 -- 37
2021-01-18 12:00:00 13 3 Noroeste 9 Noroeste 0 1021.5 -- 39
2021-01-18 11:00:00 9.4 5 Sudoeste 12 Noroeste 0 1021.8 -- 47
2021-01-18 10:00:00 7.4 8 Oeste 15 Noroeste 0 1021.3 -- 52
2021-01-18 09:00:00 4.9 3 Oeste 8 Oeste 0 1020.7 -- 59
2021-01-18 08:00:00 4.8 5 Oeste 8 Sudoeste 0 1020.2 -- 61
2021-01-18 07:00:00 5.5 2 Noroeste 9 Noroeste 0 1019.6 -- 56
2021-01-18 06:00:00 5.5 8 Oeste 10 Oeste 0 1018.9 -- 56
2021-01-18 05:00:00 5.3 6 Oeste 9 Oeste 0 1018.9 -- 59
2021-01-18 04:00:00 5.8 5 Oeste 9 Oeste 0 1019 -- 55
2021-01-18 03:00:00 6.5 3 Oeste 9 Sudoeste 0 1019.1 -- 53
2021-01-18 02:00:00 7.2 6 Oeste 11 Sudoeste 0 1019 -- 48
2021-01-18 01:00:00 8.6 4 Sudoeste 21 Oeste 0 1019.1 -- 44
2021-01-18 00:00:00 9.1 13 Sudoeste 21 Oeste 0 1018.7 -- 42
2021-01-17 23:00:00 9.7 6 Sur 16 Oeste 0 1018.9 -- 40
2021-01-17 22:00:00 13.3 15 Oeste 23 Oeste 0 1018.4 -- 24
2021-01-17 21:00:00 13.8 16 Oeste 23 Oeste 0 1018.1 -- 24
2021-01-17 20:00:00 15.3 8 Noroeste 29 Noroeste 0 1018 -- 20
2021-01-17 19:00:00 15.2 10 Oeste 17 Noroeste 0 1017.7 -- 23
2021-01-17 18:00:00 18.1 7 Noroeste 21 Oeste 0 1017.3 -- 18
2021-01-17 17:00:00 20.8 14 Noroeste 27 Oeste 0 1017.2 -- 15
2021-01-17 16:00:00 21 14 Oeste 31 Oeste 0 1017 -- 16
2021-01-17 15:00:00 20.1 21 Noroeste 35 Oeste 0 1017.3 -- 18
2021-01-17 14:00:00 19.4 13 Oeste 21 Noroeste 0 1018.3 -- 17
2021-01-17 13:00:00 16.7 9 Sudoeste 14 Sudoeste 0 1019.6 -- 29
2021-01-17 12:00:00 13.3 8 Sudoeste 14 Sudoeste 0 1020.9 -- 39
2021-01-17 11:00:00 10.1 5 Sudoeste 13 Sudoeste 0 1021.5 -- 53
2021-01-17 10:00:00 5.9 7 Sudoeste 14 Sur 0 1021.4 -- 65
2021-01-17 09:00:00 2.2 4 Sudoeste 10 Noroeste 0 1020.8 -- 77
2021-01-17 08:00:00 1.9 4 Sudoeste 10 Sudoeste 0 1020.8 -- 77
2021-01-17 07:00:00 2.2 6 Sur 9 Sur 0 1020.6 -- 79
2021-01-17 06:00:00 2.5 4 Oeste 10 Sur 0 1020.6 -- 79
2021-01-17 05:00:00 2.6 5 Noroeste 12 Sur 0 1020.9 -- 77
2021-01-17 04:00:00 3.2 4 Oeste 10 Sudoeste 0 1021.1 -- 81
2021-01-17 03:00:00 4.8 6 Sudoeste 12 Sudoeste 0 1021.2 -- 79
2021-01-17 02:00:00 5 5 Sudoeste 12 Sur 0 1021.5 -- 75
2021-01-17 01:00:00 5.3 10 Sudoeste 12 Sudoeste 0 1021.7 -- 67
2021-01-17 00:00:00 5.2 4 Oeste 13 Oeste 0 1021.9 -- 76
2021-01-16 23:00:00 7.5 7 Oeste 15 Oeste 0 1021.8 -- 61
2021-01-16 22:00:00 7.3 8 Oeste 12 Oeste 0 1021.4 -- 65
2021-01-16 21:00:00 7.5 2 Noroeste 9 Oeste 0 1021.2 -- 66
2021-01-16 20:00:00 10 6 Oeste 11 Oeste 0 1020.9 -- 60
2021-01-16 19:00:00 10.6 3 Oeste 7 Oeste 0 1020.3 -- 51
2021-01-16 18:00:00 15.3 3 Sur 6 Noroeste 0 1019.9 -- 35
2021-01-16 17:00:00 16.5 2 Noroeste 9 Sudoeste 0 1019.6 -- 28
2021-01-16 16:00:00 16.5 4 Sudoeste 14 Sudoeste 0 1019.4 -- 27
2021-01-16 15:00:00 15.8 5 Oeste 17 Oeste 0 1019.6 -- 27
2021-01-16 14:00:00 14.7 10 Oeste 20 Oeste 0 1019.7 -- 28
2021-01-16 13:00:00 13.6 10 Oeste 17 Oeste 0 1020.3 -- 31
2021-01-16 12:00:00 12.5 8 Noroeste 15 Noroeste 0 1020.9 -- 34
2021-01-16 11:00:00 11 7 Noroeste 18 Oeste 0 1020.9 -- 39
2021-01-16 10:00:00 9.4 8 Oeste 14 Oeste 0 1020.1 -- 44
2021-01-16 09:00:00 6.9 5 Sur 26 Noroeste 0 1019.1 -- 52
2021-01-16 08:00:00 7.8 14 Noroeste 33 Noroeste 0 1017.9 -- 49
2021-01-16 07:00:00 8.8 22 Noroeste 41 Noroeste 0 1017.1 -- 45
2021-01-16 06:00:00 9.4 22 Noroeste 32 Noroeste 0 1016.4 -- 44
2021-01-16 05:00:00 9.9 15 Noroeste 29 Norte 0 1016.1 -- 42
2021-01-16 04:00:00 10.1 12 Noroeste 33 Noroeste 0 1016 -- 41
2021-01-16 03:00:00 9.5 16 Noroeste 24 Noroeste 0 1015.8 -- 43
2021-01-16 02:00:00 8.9 13 Noroeste 22 Noroeste 0 1015.9 -- 45
2021-01-16 01:00:00 8.9 9 Noroeste 16 Noroeste 0 1016.1 -- 45
2021-01-16 00:00:00 10.1 12 Noroeste 30 Noroeste 0 1016.5 -- 42
2021-01-15 23:00:00 11.2 21 Noroeste 37 Noroeste 0 1016.1 -- 38
2021-01-15 22:00:00 11.5 22 Noroeste 37 Noroeste 0 1016.1 -- 36
2021-01-15 21:00:00 11.9 23 Noroeste 35 Noroeste 0 1015.9 -- 36
2021-01-15 20:00:00 12.1 14 Noroeste 24 Noroeste 0 1016 -- 36
2021-01-15 19:00:00 12.8 14 Noroeste 35 Noroeste 0 1015.8 -- 35
2021-01-15 18:00:00 14.8 21 Noroeste 35 Noroeste 0 1015.1 -- 32
2021-01-15 17:00:00 17.6 12 Oeste 29 Noroeste 0 1015.1 -- 27
2021-01-15 16:00:00 17.8 17 Noroeste 29 Oeste 0 1015 -- 27
2021-01-15 15:00:00 17 22 Noroeste 36 Noroeste 0 1015.4 -- 29
2021-01-15 14:00:00 16.2 25 Noroeste 38 Noroeste 0 1016.1 -- 33
2021-01-15 13:00:00 15.1 17 Oeste 32 Noroeste 0 1017 -- 40
2021-01-15 12:00:00 13.8 23 Noroeste 41 Noroeste 0 1017.9 -- 43
2021-01-15 11:00:00 12.6 22 Noroeste 37 Noroeste 0 1018 -- 48
2021-01-15 10:00:00 10.6 11 Oeste 31 Noroeste 0 1017.8 -- 51
2021-01-15 09:00:00 9 12 Oeste 31 Noroeste 0 1017.3 -- 57
2021-01-15 08:00:00 8.7 18 Oeste 33 Oeste 0 1016.9 -- 58
2021-01-15 07:00:00 8.4 15 Oeste 22 Oeste 0 1017.1 -- 56
2021-01-15 06:00:00 8.5 11 Oeste 23 Noroeste 0 1017 -- 51
2021-01-15 05:00:00 9.6 10 Oeste 29 Noroeste 0 1017.2 -- 44
2021-01-15 04:00:00 10 9 Oeste 22 Noroeste 0 1017.1 -- 42
2021-01-15 03:00:00 10.7 14 Oeste 27 Oeste 0 1017 -- 38
2021-01-15 02:00:00 10.8 14 Oeste 31 Noroeste 0 1016.6 -- 36
2021-01-15 01:00:00 11.1 12 Oeste 31 Oeste 0 1016.8 -- 34
2021-01-15 00:00:00 11 19 Noroeste 31 Noroeste 0 1016.3 -- 36
2021-01-14 23:00:00 7.6 5 Sudoeste 10 Sur 0 1016.3 -- 65
2021-01-14 22:00:00 8 4 Noroeste 10 Oeste 0 1016.2 -- 68
2021-01-14 21:00:00 8.7 4 Sudoeste 7 Oeste 0 1016 -- 65
2021-01-14 20:00:00 10.5 4 Norte 16 Nordeste 0 1015.8 -- 54
2021-01-14 19:00:00 12.2 12 Nordeste 19 Este 0 1015.4 -- 48
2021-01-14 18:00:00 15.4 15 Nordeste 25 Este 0 1014.9 -- 36
2021-01-14 17:00:00 18.8 12 Noroeste 18 Noroeste 0 1014.5 -- 20
2021-01-14 16:00:00 18.9 7 Sudoeste 22 Noroeste 0 1014.2 -- 22
2021-01-14 15:00:00 18.1 11 Sudoeste 25 Sudoeste 0 1014.3 -- 22
2021-01-14 14:00:00 17.2 13 Noroeste 28 Oeste 0 1015.1 -- 23
2021-01-14 13:00:00 15.6 14 Noroeste 22 Noroeste 0 1016.4 -- 26
2021-01-14 12:00:00 13.3 13 Oeste 22 Noroeste 0 1017.7 -- 31
2021-01-14 11:00:00 9.8 7 Sudoeste 12 Sudoeste 0 1018.2 -- 55
2021-01-14 10:00:00 4.9 8 Sur 10 Sur 0 1018 -- 71
2021-01-14 09:00:00 1.3 3 Sur 6 Sudoeste 0 1017.9 -- 83
2021-01-14 08:00:00 1.8 4 Oeste 8 Sudoeste 0 1017.9 -- 81
2021-01-14 07:00:00 0.9 3 Oeste 6 Sudoeste 0 1018 -- 86
2021-01-14 06:00:00 1.2 0 Calma 6 Oeste 0 1018.1 -- 83
2021-01-14 05:00:00 2.4 3 Nordeste 8 Oeste 0 1018.2 -- 76
2021-01-14 04:00:00 3.6 6 Oeste 10 Oeste 0 1018.6 -- 72
2021-01-14 03:00:00 4.5 7 Sudoeste 10 Oeste 0 1018.8 -- 67
2021-01-14 02:00:00 4.9 10 Oeste 13 Oeste 0 1019.3 -- 69
2021-01-14 01:00:00 4.2 4 Oeste 11 Oeste 0 1019.9 -- 79
2021-01-14 00:00:00 4 0 Calma 7 Norte 0 1020.6 -- 86
2021-01-13 23:00:00 4.6 4 Oeste 5 Oeste 0 1020.6 -- 85
2021-01-13 22:00:00 5.4 2 Oeste 5 Oeste 0 1020.4 -- 80
2021-01-13 21:00:00 7 3 Sudoeste 7 Noroeste 0 1020.3 -- 73
2021-01-13 20:00:00 8.4 5 Norte 10 Noroeste 0 1020.1 -- 69
2021-01-13 19:00:00 10.8 7 Norte 13 Norte 0 1019.5 -- 52
2021-01-13 18:00:00 13.8 7 Nordeste 13 Noroeste 0 1019 -- 37
2021-01-13 17:00:00 17.6 4 Oeste 11 Oeste 0 1018.8 -- 25
2021-01-13 16:00:00 17.1 8 Oeste 15 Oeste 0 1018.6 -- 26
2021-01-13 15:00:00 16.4 9 Oeste 20 Oeste 0 1018.7 -- 26
2021-01-13 14:00:00 15.3 13 Noroeste 21 Oeste 0 1019.4 -- 28
2021-01-13 13:00:00 13.6 8 Oeste 17 Oeste 0 1020.5 -- 31
2021-01-13 12:00:00 11.5 6 Oeste 14 Oeste 0 1021.7 -- 36
2021-01-13 11:00:00 9 5 Sur 9 Sur 0 1022.1 -- 50
2021-01-13 10:00:00 5.6 4 Sur 8 Sur 0 1021.8 -- 61
2021-01-13 09:00:00 0.7 4 Sur 7 Sudoeste 0 1021.1 -- 78
2021-01-13 08:00:00 1 3 Sur 9 Sudoeste 0 1020.6 -- 75
2021-01-13 07:00:00 1.2 3 Sudoeste 10 Sudoeste 0 1020.1 -- 75
2021-01-13 06:00:00 1.8 5 Sur 13 Oeste 0 1019.9 -- 72
2021-01-13 05:00:00 3.3 8 Sudoeste 12 Sudoeste 0 1020.3 -- 67
2021-01-13 04:00:00 5 7 Sudoeste 15 Oeste 0 1020.6 -- 57
2021-01-13 03:00:00 4.1 7 Sudoeste 12 Sudoeste 0 1020.6 -- 60
2021-01-13 02:00:00 3.4 0 Calma 14 Sudoeste 0 1020.6 -- 69
2021-01-13 01:00:00 4 4 Sur 15 Sudoeste 0 1021.2 -- 68
2021-01-13 00:00:00 3.4 4 Sudoeste 12 Sudoeste 0 1021.6 -- 70
2021-01-12 23:00:00 5.1 8 Sudoeste 14 Sur 0 1021.3 -- 61
2021-01-12 22:00:00 6.5 10 Sudoeste 15 Oeste 0 1020.9 -- 52
2021-01-12 21:00:00 7 9 Sudoeste 12 Sudoeste 0 1020.9 -- 54
2021-01-12 20:00:00 8.4 8 Oeste 16 Oeste 0 1020.6 -- 41
2021-01-12 19:00:00 9.3 12 Oeste 18 Noroeste 0 1020.2 -- 37
2021-01-12 18:00:00 11 10 Noroeste 20 Noroeste 0 1019.8 -- 36
2021-01-12 17:00:00 13.1 11 Noroeste 22 Noroeste 0 1019.6 -- 32
2021-01-12 16:00:00 13.7 12 Noroeste 22 Oeste 0 1019.4 -- 30
2021-01-12 15:00:00 12.9 12 Oeste 16 Oeste 0 1019.4 -- 35
2021-01-12 14:00:00 11.7 10 Noroeste 22 Noroeste 0 1019.9 -- 39
2021-01-12 13:00:00 10.2 10 Oeste 21 Oeste 0 1020.8 -- 42
2021-01-12 12:00:00 8.9 9 Oeste 17 Oeste 0 1021.7 -- 47
2021-01-12 11:00:00 7.5 9 Oeste 17 Oeste 0 1022 -- 52
2021-01-12 10:00:00 5.4 10 Oeste 18 Oeste 0 1021.3 -- 66
2021-01-12 09:00:00 3.3 11 Sudoeste 19 Sudoeste 0 1020.6 -- 74
2021-01-12 08:00:00 2.8 7 Sudoeste 15 Oeste 0 1020.2 -- 78
2021-01-12 07:00:00 2.6 7 Sudoeste 14 Sudoeste 0 1019.7 -- 78
2021-01-12 06:00:00 2.7 6 Sudoeste 14 Oeste 0 1019.1 -- 77
2021-01-12 05:00:00 2.7 6 Sudoeste 12 Sudoeste 0 1019 -- 77
2021-01-12 04:00:00 3.3 9 Oeste 14 Oeste 0 1019.2 -- 74
2021-01-12 03:00:00 2.6 3 Sudoeste 9 Sudoeste 0 1019.2 -- 78
2021-01-12 02:00:00 3 3 Sudoeste 10 Sudoeste 0 1019 -- 77
2021-01-12 01:00:00 4.7 6 Sudoeste 13 Oeste 0 1018.7 -- 70
2021-01-12 00:00:00 5.2 8 Oeste 12 Oeste 0 1018.3 -- 70
2021-01-11 23:00:00 6.3 7 Sudoeste 13 Sur 0 1017.7 -- 71
2021-01-11 22:00:00 7 6 Sudoeste 18 Noroeste 0 1016.9 -- 70
2021-01-11 21:00:00 7.4 9 Noroeste 21 Noroeste 0 1015.9 -- 68
2021-01-11 20:00:00 8.3 5 Norte 15 Nordeste 0 1015.1 -- 65
2021-01-11 19:00:00 9.9 8 Nordeste 12 Nordeste 0 1014.3 -- 73
2021-01-11 18:00:00 11.1 2 Noroeste 10 Oeste 0 1013.7 -- 61
2021-01-11 17:00:00 11.8 6 Sudoeste 13 Sudoeste 0 1013.1 -- 55
2021-01-11 16:00:00 12.2 4 Sudoeste 12 Noroeste 0 1012.5 -- 54
2021-01-11 15:00:00 12.1 8 Oeste 20 Oeste 0 1012 -- 56
2021-01-11 14:00:00 11.4 9 Oeste 15 Oeste 0 1012 -- 60
2021-01-11 13:00:00 9.7 6 Oeste 14 Noroeste 0 1012.7 -- 66
2021-01-11 12:00:00 8.6 9 Oeste 13 Noroeste 0 1013.4 -- 71
2021-01-11 11:00:00 7.3 4 Sudoeste 8 Sudoeste 0 1013.3 -- 81
2021-01-11 10:00:00 6.2 0 Calma 5 Sudoeste 0 1012.2 -- 86
2021-01-11 09:00:00 5.5 2 Sudoeste 9 Oeste 0 1011.3 -- 89
2021-01-11 08:00:00 5.8 6 Sudoeste 10 Sudoeste 0 1010.6 -- 86
2021-01-11 07:00:00 5.4 4 Oeste 6 Oeste 0 1010 -- 90
2021-01-11 06:00:00 5.6 5 Sudoeste 10 Noroeste 0 1009.7 -- 89
2021-01-11 05:00:00 4.9 3 Oeste 9 Oeste 0 1009.7 -- 92
2021-01-11 04:00:00 4.7 3 Noroeste 9 Noroeste 0 1009.5 -- 93
2021-01-11 03:00:00 4.6 4 Oeste 12 Noroeste 0 1009.4 -- 93
2021-01-11 02:00:00 5.1 6 Noroeste 8 Noroeste 0 1009.1 -- 91
2021-01-11 01:00:00 5.4 3 Noroeste 5 Noroeste 0 1009 -- 91
2021-01-11 00:00:00 5.7 4 Oeste 8 Noroeste 0 1008.9 -- 90
2021-01-10 23:00:00 5.5 4 Oeste 9 Oeste 0 1008.7 -- 92
2021-01-10 22:00:00 6.1 5 Oeste 8 Oeste 0 1008.1 -- 91
2021-01-10 21:00:00 6.7 5 Oeste 8 Oeste 0 1007.7 -- 89
2021-01-10 20:00:00 7 4 Sudoeste 9 Sudoeste 0 1007.2 -- 88
2021-01-10 19:00:00 7.6 5 Noroeste 6 Noroeste 0 1006.3 -- 85
2021-01-10 18:00:00 8.2 2 Noroeste 7 Noroeste 0 1005.9 -- 83
2021-01-10 17:00:00 8.4 3 Noroeste 7 Noroeste 0.2 1005.3 -- 83
2021-01-10 16:00:00 8 3 Noroeste 12 Oeste 0.6 1004.7 -- 83
2021-01-10 15:00:00 7.7 6 Oeste 10 Oeste 0 1004.5 -- 81
2021-01-10 14:00:00 7.2 8 Oeste 13 Oeste 0 1004.4 -- 82
2021-01-10 13:00:00 6.8 4 Noroeste 10 Oeste 0.4 1004.4 -- 83
2021-01-10 12:00:00 6.7 4 Noroeste 9 Noroeste 0 1004.9 -- 82
2021-01-10 11:00:00 5.9 3 Norte 7 Norte 0 1004.3 -- 88
2021-01-10 10:00:00 5.8 4 Norte 6 Norte 0 1003.1 -- 89
2021-01-10 09:00:00 5.3 3 Noroeste 5 Oeste 0 1002.2 -- 93
2021-01-10 08:00:00 5 4 Oeste 6 Sudoeste 0 1001.4 -- 93
2021-01-10 07:00:00 4.9 2 Sudoeste 8 Sudoeste 0 1000.7 -- 93
2021-01-10 06:00:00 4.8 6 Noroeste 10 Sudoeste 2 1000 -- 93
2021-01-10 05:00:00 5 5 Oeste 12 Noroeste 0 999.9 -- 88
2021-01-10 04:00:00 5.1 4 Oeste 12 Noroeste 0 1000.2 -- 87
2021-01-10 03:00:00 5 6 Noroeste 14 Noroeste 0 999.9 -- 89
2021-01-10 02:00:00 4.8 7 Noroeste 10 Noroeste 0 999.8 -- 91
2021-01-10 01:00:00 5.3 5 Noroeste 13 Noroeste 0 1000 -- 89
2021-01-10 00:00:00 5 3 Norte 7 Noroeste 0 999.9 -- 90
2021-01-09 23:00:00 5.6 4 Oeste 8 Oeste 0 1000.3 -- 93
2021-01-09 22:00:00 5.9 3 Sudeste 8 Nordeste 0 1000.1 -- 90
2021-01-09 21:00:00 6.9 4 Sudeste 15 Oeste 0 999.4 -- 86
2021-01-09 20:00:00 8.1 6 Sudoeste 14 Oeste 0 999 -- 83
2021-01-09 19:00:00 9.2 13 Oeste 22 Noroeste 0 998.3 -- 81
2021-01-09 18:00:00 9.6 10 Noroeste 19 Noroeste 0 997.5 -- 81
2021-01-09 17:00:00 10.5 12 Noroeste 17 Noroeste 0 996.8 -- 78
2021-01-09 16:00:00 11.2 6 Sudeste 12 Noroeste 0 996 -- 78
2021-01-09 15:00:00 10.7 8 Noroeste 14 Oeste 0 995.4 -- 79
2021-01-09 14:00:00 9.2 6 Noroeste 10 Noroeste 0 996 -- 81
2021-01-09 13:00:00 8.3 5 Oeste 13 Noroeste 0 996.6 -- 85
2021-01-09 12:00:00 8 4 Oeste 10 Noroeste 0 997.3 -- 87
2021-01-09 11:00:00 7.3 4 Noroeste 6 Noroeste 0 997.7 -- 90
2021-01-09 10:00:00 6.4 3 Oeste 7 Oeste 0 997.4 -- 94
2021-01-09 09:00:00 6 5 Oeste 8 Oeste 0 996.6 -- 96
2021-01-09 08:00:00 6 4 Sur 9 Sudoeste 0 996.4 -- 96
2021-01-09 07:00:00 6 4 Sudoeste 8 Sudoeste 0.2 996.1 -- 97
2021-01-09 06:00:00 6 6 Sudoeste 15 Sudoeste 0.2 995.9 -- 96
2021-01-09 05:00:00 5.9 4 Sur 10 Sudoeste 0.6 995.9 -- 97
2021-01-09 04:00:00 5.9 5 Sudoeste 23 Noroeste 0.8 996.2 -- 96
2021-01-09 03:00:00 5.8 17 Noroeste 26 Noroeste 0.8 996.3 -- 96
2021-01-09 02:00:00 5.7 14 Noroeste 21 Noroeste 0.4 996.3 -- 97
2021-01-09 01:00:00 5.7 5 Noroeste 14 Noroeste 0.6 996.9 -- 97
2021-01-09 00:00:00 5.6 4 Sudoeste 22 Noroeste 0.8 997.2 -- 96
2021-01-08 23:00:00 5.7 10 Noroeste 22 Noroeste 1 997.9 -- 96
2021-01-08 22:00:00 5.6 14 Noroeste 24 Noroeste 0.2 999 -- 96
2021-01-08 21:00:00 5.7 6 Este 22 Noroeste 1 998.6 -- 96
2021-01-08 20:00:00 5.7 12 Norte 22 Norte 0.8 999.3 -- 96
2021-01-08 19:00:00 5.9 10 Noroeste 17 Noroeste 0.6 999 -- 96
2021-01-08 18:00:00 7.1 11 Nordeste 21 Este 0.2 999.4 -- 97
2021-01-08 17:00:00 6.1 4 Oeste 14 Oeste 1.6 1000.5 -- 97
2021-01-08 16:00:00 5.6 6 Oeste 16 Oeste 1.8 1000.2 -- 96
2021-01-08 15:00:00 5.6 6 Oeste 11 Sudoeste 1 1000.3 -- 95
2021-01-08 14:00:00 5.5 4 Oeste 17 Oeste 1 1001 -- 95
2021-01-08 13:00:00 5.3 8 Oeste 13 Oeste 1.8 1002.1 -- 95
2021-01-08 12:00:00 5.2 3 Sur 13 Sudoeste 1.2 1003 -- 95
2021-01-08 11:00:00 4.8 7 Oeste 14 Oeste 2.2 1004 -- 96
2021-01-08 10:00:00 4.4 7 Oeste 12 Sudoeste 1.2 1003.6 -- 96
2021-01-08 09:00:00 4.2 5 Oeste 12 Sudoeste 1 1003 -- 96
2021-01-08 08:00:00 4.2 5 Sudoeste 11 Oeste 0.6 1003.5 -- 95
2021-01-08 07:00:00 4.2 4 Sudoeste 12 Sur 0.2 1003.4 -- 95
2021-01-08 06:00:00 4.3 6 Sur 8 Sur 0.2 1003.3 -- 94
2021-01-08 05:00:00 4.5 4 Sudoeste 16 Oeste 0.4 1003.6 -- 93
2021-01-08 04:00:00 4.7 4 Sudoeste 12 Sudoeste 0.8 1003.9 -- 92
2021-01-08 03:00:00 5.1 5 Sur 8 Oeste 1.2 1003.8 -- 93
2021-01-08 02:00:00 5.2 7 Sudoeste 12 Oeste 2.8 1003.6 -- 94
2021-01-08 01:00:00 5.4 6 Sudoeste 10 Sudoeste 2 1003.5 -- 93
2021-01-08 00:00:00 5.6 5 Sudoeste 11 Oeste 0.2 1003.7 -- 92
2021-01-07 23:00:00 5.7 7 Sudoeste 12 Sudoeste 0 1004.4 -- 90
2021-01-07 22:00:00 5.7 5 Sudoeste 10 Sudoeste 0 1004.4 -- 91
2021-01-07 21:00:00 5.6 5 Sudoeste 9 Sudoeste 0 1004.9 -- 93
2021-01-07 20:00:00 5.5 5 Oeste 10 Sur 0.2 1004.9 -- 93
2021-01-07 19:00:00 5.7 5 Sudoeste 12 Noroeste 0 1004.5 -- 91
2021-01-07 18:00:00 5.6 8 Oeste 22 Oeste 0 1004.2 -- 90
2021-01-07 17:00:00 5.7 13 Noroeste 24 Noroeste 0.4 1003.9 -- 93
2021-01-07 16:00:00 5.9 13 Noroeste 21 Noroeste 0.8 1003.1 -- 94
2021-01-07 15:00:00 5.7 9 Oeste 17 Oeste 0.4 1003 -- 92
2021-01-07 14:00:00 5.6 6 Oeste 12 Oeste 0.8 1003.1 -- 92
2021-01-07 13:00:00 5.6 6 Oeste 14 Oeste 1 1003.6 -- 93
2021-01-07 12:00:00 5.5 6 Sudoeste 16 Oeste 0.6 1004.4 -- 92
2021-01-07 11:00:00 5 7 Oeste 18 Oeste 0.8 1004.7 -- 92
2021-01-07 10:00:00 4.8 5 Sudoeste 22 Noroeste 0.6 1004.4 -- 92
2021-01-07 09:00:00 5 13 Noroeste 23 Noroeste 0.8 1003.8 -- 93
2021-01-07 08:00:00 5.5 12 Noroeste 19 Noroeste 1.2 1003.7 -- 93
2021-01-07 07:00:00 5.8 8 Noroeste 13 Norte 1.2 1003.2 -- 91
2021-01-07 06:00:00 5.9 7 Norte 16 Norte 1 1003.1 -- 91
2021-01-07 05:00:00 6.1 8 Norte 18 Nordeste 0.2 1003 -- 88
2021-01-07 04:00:00 6.3 12 Norte 27 Nordeste 1 1003.1 -- 89
2021-01-07 03:00:00 7 9 Norte 15 Norte 0.8 1004.1 -- 90
2021-01-07 02:00:00 7 5 Nordeste 12 Nordeste 0.8 1004 -- 90
2021-01-07 01:00:00 7.7 8 Nordeste 17 Este 0.2 1004.6 -- 79
2021-01-07 00:00:00 8.4 8 Este 13 Este 0 1004.8 -- 74
2021-01-06 23:00:00 9.3 9 Este 22 Este 0 1005.3 -- 68
2021-01-06 22:00:00 9.6 11 Nordeste 19 Nordeste 0 1005.5 -- 66
2021-01-06 21:00:00 9.5 9 Nordeste 15 Nordeste 0 1006.2 -- 65
2021-01-06 20:00:00 9.6 7 Nordeste 14 Este 0 1006.8 -- 62
2021-01-06 19:00:00 10.2 8 Este 14 Sudeste 0 1006.2 -- 60
2021-01-06 18:00:00 10.7 9 Este 15 Este 0 1005.8 -- 51
2021-01-06 17:00:00 11.7 7 Nordeste 13 Este 0 1005.5 -- 42
2021-01-06 16:00:00 12 8 Nordeste 17 Este 0 1005.5 -- 30
2021-01-06 15:00:00 12.3 6 Este 12 Este 0 1005.5 -- 41
2021-01-06 14:00:00 10.9 4 Sudoeste 9 Sur 0 1006.1 -- 40
2021-01-06 13:00:00 9.7 4 Oeste 11 Oeste 0 1006.8 -- 41
2021-01-06 12:00:00 7.7 6 Oeste 12 Oeste 0 1007.8 -- 45
2021-01-06 11:00:00 6.6 5 Noroeste 11 Oeste 0 1008.1 -- 46
2021-01-06 10:00:00 5 6 Noroeste 15 Noroeste 0 1007.4 -- 52
2021-01-06 09:00:00 3.5 5 Oeste 10 Sudoeste 0 1006.8 -- 58
2021-01-06 08:00:00 2.7 2 Sudoeste 14 Noroeste 0 1006.1 -- 59
2021-01-06 07:00:00 2.6 4 Noroeste 12 Noroeste 0 1005.5 -- 60
2021-01-06 06:00:00 3.5 5 Oeste 14 Noroeste 0 1004.9 -- 57
2021-01-06 05:00:00 3.9 8 Noroeste 13 Noroeste 0 1004.7 -- 54
2021-01-06 04:00:00 4.3 4 Oeste 15 Noroeste 0 1004.9 -- 53
2021-01-06 03:00:00 4.3 5 Noroeste 13 Noroeste 0 1005 -- 53
2021-01-06 02:00:00 4.5 5 Oeste 10 Oeste 0 1004.7 -- 51
2021-01-06 01:00:00 4.9 3 Oeste 12 Noroeste 0 1004.9 -- 49
2021-01-06 00:00:00 4.9 8 Noroeste 13 Noroeste 0 1005.1 -- 49
2021-01-05 23:00:00 5.2 7 Noroeste 9 Noroeste 0 1005 -- 49
2021-01-05 22:00:00 6.5 6 Noroeste 10 Oeste 0 1004.7 -- 45
2021-01-05 21:00:00 7.5 6 Noroeste 9 Noroeste 0 1004.7 -- 43
2021-01-05 20:00:00 8.3 2 Sur 12 Noroeste 0 1004.4 -- 41
2021-01-05 19:00:00 8.9 6 Noroeste 10 Noroeste 0 1004 -- 38
2021-01-05 18:00:00 10.2 5 Noroeste 9 Oeste 0 1003.5 -- 34
2021-01-05 17:00:00 11.5 4 Oeste 18 Oeste 0 1003.3 -- 31
2021-01-05 16:00:00 12.6 9 Noroeste 26 Noroeste 0 1003.1 -- 28
2021-01-05 15:00:00 12.6 14 Noroeste 26 Noroeste 0 1003.2 -- 28
2021-01-05 14:00:00 11.9 17 Noroeste 27 Noroeste 0 1003.8 -- 32
2021-01-05 13:00:00 11 14 Noroeste 24 Noroeste 0 1004.6 -- 37
2021-01-05 12:00:00 9.4 13 Noroeste 25 Noroeste 0 1005.6 -- 44
2021-01-05 11:00:00 7 6 Sudoeste 15 Sudoeste 0 -- -- 53
2021-01-05 10:00:00 3.9 5 Sudoeste 10 Sudoeste 0 -- -- 64
2021-01-05 09:00:00 1.2 3 Sudeste -- -- -- 1006 -- 74
2021-01-05 08:00:00 -- -- -- -- -- -- -- -- --
2021-01-05 07:00:00 -- -- -- -- -- -- -- -- --
2021-01-05 06:00:00 -- -- -- -- -- -- -- -- --
2021-01-05 05:00:00 -- -- -- -- -- -- -- -- --
2021-01-05 04:00:00 -- -- -- -- -- -- -- -- --
2021-01-05 03:00:00 -- -- -- -- -- -- -- -- --
2021-01-05 02:00:00 -- -- -- -- -- -- -- -- --
2021-01-05 01:00:00 -- -- -- -- -- -- -- -- --
2021-01-05 00:00:00 -- -- -- -- -- -- -- -- --
2021-01-04 23:00:00 -- -- -- -- -- -- -- -- --
2021-01-04 22:00:00 -- -- -- -- -- -- -- -- --
2021-01-04 21:00:00 -- -- -- -- -- -- -- -- --
2021-01-04 20:00:00 -- -- -- -- -- -- -- -- --
2021-01-04 19:00:00 -- -- -- -- -- -- -- -- --
2021-01-04 18:00:00 -- -- -- -- -- -- -- -- --
2021-01-04 17:00:00 -- -- -- -- -- -- -- -- --
2021-01-04 16:00:00 13.1 10 Norte 21 Norte 0 1002.9 -- 32
2021-01-04 15:00:00 14.9 9 Norte 27 Oeste 0 1002.6 -- 28
2021-01-04 14:00:00 14.2 4 Norte 17 Sudoeste 0 1003.4 -- 27
2021-01-04 13:00:00 13.2 6 Sur 17 Sudoeste 0 1004.5 -- 30
2021-01-04 12:00:00 11.7 4 Sur 10 Oeste 0 1005.6 -- 36
2021-01-04 11:00:00 9 5 Sudoeste 12 Sudoeste 0 1006.6 -- 41
2021-01-04 10:00:00 6.2 8 Sudoeste 13 Oeste 0 1006.7 -- 47
2021-01-04 09:00:00 0.7 7 Oeste 10 Sudoeste 0 1006.6 -- 65
2021-01-04 08:00:00 0.2 4 Noroeste 9 Oeste 0 1006.5 -- 63
2021-01-04 07:00:00 0.4 5 Sudoeste 10 Noroeste 0 1006.2 -- 62
2021-01-04 06:00:00 -0.3 3 Sur 10 Noroeste 0 1006.4 -- 62
2021-01-04 05:00:00 -0.6 5 Noroeste 11 Sur 0 1006.7 -- 63
2021-01-04 04:00:00 -0.7 5 Oeste 14 Sur 0 1007.2 -- 64
2021-01-04 03:00:00 0.1 5 Oeste 8 Oeste 0 1007.1 -- 61
2021-01-04 02:00:00 0.7 4 Sudoeste 9 Noroeste 0 1007.4 -- 60
2021-01-04 01:00:00 1 4 Oeste 13 Sudoeste 0 1007.8 -- 59
2021-01-04 00:00:00 2.1 3 Oeste 8 Sur 0 1008.1 -- 56
2021-01-03 23:00:00 3.4 4 Sudoeste 10 Sur 0 1008.3 -- 53
2021-01-03 22:00:00 4.5 5 Noroeste 8 Sudeste 0 1008.1 -- 48
2021-01-03 21:00:00 6.1 6 Oeste 13 Sudoeste 0 1008 -- 44
2021-01-03 20:00:00 7.2 7 Oeste 13 Oeste 0 1007.8 -- 40
2021-01-03 19:00:00 9.7 6 Sudoeste 20 Oeste 0 1007.4 -- 34
2021-01-03 18:00:00 11.3 16 Oeste 27 Oeste 0 1007.2 -- 30
2021-01-03 17:00:00 12.9 14 Oeste 31 Oeste 0 1007 -- 27
2021-01-03 16:00:00 13.4 17 Oeste 36 Noroeste 0 1006.5 -- 27
2021-01-03 15:00:00 13.1 25 Noroeste 44 Oeste 0 1006.5 -- 27
2021-01-03 14:00:00 13.1 24 Noroeste 43 Noroeste 0 1006.9 -- 27
2021-01-03 13:00:00 12 24 Oeste 45 Oeste 0 1007.5 -- 29
2021-01-03 12:00:00 10.7 27 Noroeste 46 Noroeste 0 1008.2 -- 32
2021-01-03 11:00:00 9.7 22 Noroeste 45 Noroeste 0 1008.6 -- 33
2021-01-03 10:00:00 8.9 23 Noroeste 46 Noroeste 0 1008 -- 34
2021-01-03 09:00:00 6.8 6 Sur 29 Noroeste 0 1007.7 -- 40
2021-01-03 08:00:00 6.9 19 Oeste 35 Oeste 0 1006.7 -- 39
2021-01-03 07:00:00 6.8 18 Noroeste 37 Noroeste 0 1006.4 -- 39
2021-01-03 06:00:00 6.6 21 Noroeste 40 Noroeste 0 1006.2 -- 36
2021-01-03 05:00:00 6.5 18 Noroeste 36 Noroeste 0 1006 -- 37
2021-01-03 04:00:00 6.7 22 Noroeste 42 Noroeste 0 1006.4 -- 38
2021-01-03 03:00:00 7.1 22 Noroeste 45 Noroeste 0 1006.3 -- 39
2021-01-03 02:00:00 7.3 21 Noroeste 44 Oeste 0 1006.2 -- 40
2021-01-03 01:00:00 7.4 15 Oeste 34 Oeste 0 1006.4 -- 40
2021-01-03 00:00:00 7.8 13 Oeste 37 Noroeste 0 1006.4 -- 40
2021-01-02 23:00:00 8 17 Noroeste 32 Noroeste 0 1006.2 -- 40
2021-01-02 22:00:00 8.6 12 Oeste 35 Noroeste 0 1006 -- 38
2021-01-02 21:00:00 8.6 14 Noroeste 37 Norte 0 1005.5 -- 39
2021-01-02 20:00:00 9 18 Noroeste 44 Oeste 0 1005.2 -- 37
2021-01-02 19:00:00 9.3 26 Oeste 48 Oeste 0 1004.3 -- 35
2021-01-02 18:00:00 9.7 24 Noroeste 51 Noroeste 0 1004.3 -- 33
2021-01-02 17:00:00 10.5 26 Noroeste 48 Noroeste 0 1004.1 -- 31
2021-01-02 16:00:00 11 25 Noroeste 44 Oeste 0 1003.8 -- 31
2021-01-02 15:00:00 11.9 28 Oeste 49 Noroeste 0 1003.3 -- 28
2021-01-02 14:00:00 11.9 24 Noroeste 46 Oeste 0 1003.8 -- 26